sensor_id;sensor_type;location;lat;lon;timestamp;P1;durP1;ratioP1;P2;durP2;ratioP2
28547;SDS011;68292;49.600;8.746;2023-04-06T00:01:01;7.60;;;5.50;;
28547;SDS011;68292;49.600;8.746;2023-04-06T00:03:30;5.80;;;5.20;;
28547;SDS011;68292;49.600;8.746;2023-04-06T00:05:59;7.10;;;5.70;;
28547;SDS011;68292;49.600;8.746;2023-04-06T00:08:28;6.57;;;5.93;;
28547;SDS011;68292;49.600;8.746;2023-04-06T00:10:57;6.70;;;6.00;;
28547;SDS011;68292;49.600;8.746;2023-04-06T00:13:27;8.43;;;6.70;;
28547;SDS011;68292;49.600;8.746;2023-04-06T00:15:56;6.20;;;5.60;;
28547;SDS011;68292;49.600;8.746;2023-04-06T00:18:25;6.93;;;5.93;;
28547;SDS011;68292;49.600;8.746;2023-04-06T00:20:54;6.20;;;5.60;;
28547;SDS011;68292;49.600;8.746;2023-04-06T00:23:23;8.40;;;6.20;;
28547;SDS011;68292;49.600;8.746;2023-04-06T00:25:52;6.80;;;5.80;;
28547;SDS011;68292;49.600;8.746;2023-04-06T00:28:20;7.73;;;6.13;;
28547;SDS011;68292;49.600;8.746;2023-04-06T00:30:53;6.23;;;5.63;;
28547;SDS011;68292;49.600;8.746;2023-04-06T00:33:22;6.73;;;6.03;;
28547;SDS011;68292;49.600;8.746;2023-04-06T00:35:52;7.27;;;6.03;;
28547;SDS011;68292;49.600;8.746;2023-04-06T00:38:21;5.93;;;5.33;;
28547;SDS011;68292;49.600;8.746;2023-04-06T00:40:50;8.53;;;6.30;;
28547;SDS011;68292;49.600;8.746;2023-04-06T00:43:19;6.10;;;5.57;;
28547;SDS011;68292;49.600;8.746;2023-04-06T00:45:48;7.30;;;6.03;;
28547;SDS011;68292;49.600;8.746;2023-04-06T00:48:18;9.77;;;6.50;;
28547;SDS011;68292;49.600;8.746;2023-04-06T00:50:47;6.33;;;5.73;;
28547;SDS011;68292;49.600;8.746;2023-04-06T00:53:16;6.30;;;5.60;;
28547;SDS011;68292;49.600;8.746;2023-04-06T00:55:46;7.13;;;6.40;;
28547;SDS011;68292;49.600;8.746;2023-04-06T00:58:15;6.77;;;5.23;;
28547;SDS011;68292;49.600;8.746;2023-04-06T01:00:50;7.57;;;5.60;;
28547;SDS011;68292;49.600;8.746;2023-04-06T01:03:22;7.33;;;5.70;;
28547;SDS011;68292;49.600;8.746;2023-04-06T01:05:52;6.50;;;5.73;;
28547;SDS011;68292;49.600;8.746;2023-04-06T01:08:31;5.73;;;5.17;;
28547;SDS011;68292;49.600;8.746;2023-04-06T01:11:14;5.67;;;4.90;;
28547;SDS011;68292;49.600;8.746;2023-04-06T01:13:43;6.37;;;5.20;;
28547;SDS011;68292;49.600;8.746;2023-04-06T01:16:42;6.17;;;5.47;;
28547;SDS011;68292;49.600;8.746;2023-04-06T01:19:16;6.57;;;5.60;;
28547;SDS011;68292;49.600;8.746;2023-04-06T01:21:48;7.30;;;5.23;;
28547;SDS011;68292;49.600;8.746;2023-04-06T01:24:30;6.10;;;5.50;;
28547;SDS011;68292;49.600;8.746;2023-04-06T01:26:59;6.03;;;5.37;;
28547;SDS011;68292;49.600;8.746;2023-04-06T01:29:40;5.60;;;5.10;;
28547;SDS011;68292;49.600;8.746;2023-04-06T01:32:13;6.37;;;5.67;;
28547;SDS011;68292;49.600;8.746;2023-04-06T01:34:48;6.87;;;5.90;;
28547;SDS011;68292;49.600;8.746;2023-04-06T01:37:17;6.37;;;5.70;;
28547;SDS011;68292;49.600;8.746;2023-04-06T01:39:48;5.30;;;4.43;;
28547;SDS011;68292;49.600;8.746;2023-04-06T01:42:26;5.67;;;5.07;;
28547;SDS011;68292;49.600;8.746;2023-04-06T01:44:56;6.20;;;5.60;;
28547;SDS011;68292;49.600;8.746;2023-04-06T01:47:25;6.10;;;5.50;;
28547;SDS011;68292;49.600;8.746;2023-04-06T01:49:54;5.93;;;5.33;;
28547;SDS011;68292;49.600;8.746;2023-04-06T01:52:24;6.73;;;5.70;;
28547;SDS011;68292;49.600;8.746;2023-04-06T01:54:55;6.10;;;5.50;;
28547;SDS011;68292;49.600;8.746;2023-04-06T01:57:44;6.03;;;5.43;;
28547;SDS011;68292;49.600;8.746;2023-04-06T02:00:24;5.63;;;5.13;;
28547;SDS011;68292;49.600;8.746;2023-04-06T02:02:54;5.90;;;5.20;;
28547;SDS011;68292;49.600;8.746;2023-04-06T02:05:25;7.07;;;5.70;;
28547;SDS011;68292;49.600;8.746;2023-04-06T02:07:58;6.47;;;5.87;;
28547;SDS011;68292;49.600;8.746;2023-04-06T02:10:33;6.40;;;5.80;;
28547;SDS011;68292;49.600;8.746;2023-04-06T02:13:11;5.77;;;5.13;;
28547;SDS011;68292;49.600;8.746;2023-04-06T02:15:45;7.10;;;5.70;;
28547;SDS011;68292;49.600;8.746;2023-04-06T02:18:14;5.93;;;5.33;;
28547;SDS011;68292;49.600;8.746;2023-04-06T02:20:44;5.97;;;5.40;;
28547;SDS011;68292;49.600;8.746;2023-04-06T02:23:13;8.13;;;6.30;;
28547;SDS011;68292;49.600;8.746;2023-04-06T02:25:44;7.90;;;5.50;;
28547;SDS011;68292;49.600;8.746;2023-04-06T02:28:12;5.73;;;5.13;;
28547;SDS011;68292;49.600;8.746;2023-04-06T02:30:41;5.60;;;5.00;;
28547;SDS011;68292;49.600;8.746;2023-04-06T02:33:11;6.70;;;5.57;;
28547;SDS011;68292;49.600;8.746;2023-04-06T02:35:44;6.97;;;6.00;;
28547;SDS011;68292;49.600;8.746;2023-04-06T02:38:13;9.10;;;5.60;;
28547;SDS011;68292;49.600;8.746;2023-04-06T02:40:43;7.93;;;5.90;;
28547;SDS011;68292;49.600;8.746;2023-04-06T02:43:21;5.53;;;4.87;;
28547;SDS011;68292;49.600;8.746;2023-04-06T02:45:54;5.47;;;4.97;;
28547;SDS011;68292;49.600;8.746;2023-04-06T02:48:24;6.23;;;5.50;;
28547;SDS011;68292;49.600;8.746;2023-04-06T02:50:53;5.93;;;5.30;;
28547;SDS011;68292;49.600;8.746;2023-04-06T02:53:22;6.80;;;5.97;;
28547;SDS011;68292;49.600;8.746;2023-04-06T02:55:52;5.47;;;4.97;;
28547;SDS011;68292;49.600;8.746;2023-04-06T02:58:27;7.07;;;5.20;;
28547;SDS011;68292;49.600;8.746;2023-04-06T03:00:57;5.53;;;5.00;;
28547;SDS011;68292;49.600;8.746;2023-04-06T03:03:26;5.60;;;5.10;;
28547;SDS011;68292;49.600;8.746;2023-04-06T03:05:56;5.83;;;5.10;;
28547;SDS011;68292;49.600;8.746;2023-04-06T03:08:29;6.50;;;5.07;;
28547;SDS011;68292;49.600;8.746;2023-04-06T03:10:59;8.07;;;6.03;;
28547;SDS011;68292;49.600;8.746;2023-04-06T03:13:35;10.47;;;6.17;;
28547;SDS011;68292;49.600;8.746;2023-04-06T03:16:06;6.73;;;6.03;;
28547;SDS011;68292;49.600;8.746;2023-04-06T03:18:35;6.67;;;5.67;;
28547;SDS011;68292;49.600;8.746;2023-04-06T03:21:04;5.40;;;4.90;;
28547;SDS011;68292;49.600;8.746;2023-04-06T03:23:43;7.80;;;5.90;;
28547;SDS011;68292;49.600;8.746;2023-04-06T03:26:13;6.00;;;5.37;;
28547;SDS011;68292;49.600;8.746;2023-04-06T03:28:42;5.53;;;5.00;;
28547;SDS011;68292;49.600;8.746;2023-04-06T03:31:11;5.90;;;5.30;;
28547;SDS011;68292;49.600;8.746;2023-04-06T03:33:44;6.97;;;5.30;;
28547;SDS011;68292;49.600;8.746;2023-04-06T03:36:20;5.83;;;5.23;;
28547;SDS011;68292;49.600;8.746;2023-04-06T03:38:49;6.57;;;5.33;;
28547;SDS011;68292;49.600;8.746;2023-04-06T03:41:21;6.47;;;5.57;;
28547;SDS011;68292;49.600;8.746;2023-04-06T03:44:04;6.70;;;5.63;;
28547;SDS011;68292;49.600;8.746;2023-04-06T03:46:43;6.90;;;6.20;;
28547;SDS011;68292;49.600;8.746;2023-04-06T03:49:12;7.07;;;5.60;;
28547;SDS011;68292;49.600;8.746;2023-04-06T03:51:46;6.90;;;6.20;;
28547;SDS011;68292;49.600;8.746;2023-04-06T03:54:14;6.97;;;6.27;;
28547;SDS011;68292;49.600;8.746;2023-04-06T03:56:45;8.37;;;6.73;;
28547;SDS011;68292;49.600;8.746;2023-04-06T03:59:14;5.90;;;5.37;;
28547;SDS011;68292;49.600;8.746;2023-04-06T04:01:43;6.30;;;5.70;;
28547;SDS011;68292;49.600;8.746;2023-04-06T04:04:12;6.43;;;5.77;;
28547;SDS011;68292;49.600;8.746;2023-04-06T04:06:41;6.30;;;5.70;;
28547;SDS011;68292;49.600;8.746;2023-04-06T04:09:09;5.60;;;5.10;;
28547;SDS011;68292;49.600;8.746;2023-04-06T04:11:38;5.27;;;4.77;;
28547;SDS011;68292;49.600;8.746;2023-04-06T04:14:08;5.83;;;5.23;;
28547;SDS011;68292;49.600;8.746;2023-04-06T04:16:37;5.87;;;5.27;;
28547;SDS011;68292;49.600;8.746;2023-04-06T04:19:08;6.37;;;5.03;;
28547;SDS011;68292;49.600;8.746;2023-04-06T04:21:42;6.93;;;5.53;;
28547;SDS011;68292;49.600;8.746;2023-04-06T04:24:16;6.07;;;5.47;;
28547;SDS011;68292;49.600;8.746;2023-04-06T04:26:44;6.73;;;5.33;;
28547;SDS011;68292;49.600;8.746;2023-04-06T04:29:15;6.37;;;5.13;;
28547;SDS011;68292;49.600;8.746;2023-04-06T04:31:49;5.40;;;4.90;;
28547;SDS011;68292;49.600;8.746;2023-04-06T04:34:19;5.50;;;5.00;;
28547;SDS011;68292;49.600;8.746;2023-04-06T04:36:50;6.03;;;5.43;;
28547;SDS011;68292;49.600;8.746;2023-04-06T04:39:29;5.13;;;4.67;;
28547;SDS011;68292;49.600;8.746;2023-04-06T04:42:02;5.67;;;5.03;;
28547;SDS011;68292;49.600;8.746;2023-04-06T04:44:35;6.00;;;5.40;;
28547;SDS011;68292;49.600;8.746;2023-04-06T04:47:04;5.63;;;5.03;;
28547;SDS011;68292;49.600;8.746;2023-04-06T04:49:41;5.40;;;4.90;;
28547;SDS011;68292;49.600;8.746;2023-04-06T04:52:15;5.43;;;4.93;;
28547;SDS011;68292;49.600;8.746;2023-04-06T04:55:04;5.43;;;4.63;;
28547;SDS011;68292;49.600;8.746;2023-04-06T04:57:34;5.17;;;4.73;;
28547;SDS011;68292;49.600;8.746;2023-04-06T05:00:06;7.67;;;4.63;;
28547;SDS011;68292;49.600;8.746;2023-04-06T05:02:39;5.83;;;5.30;;
28547;SDS011;68292;49.600;8.746;2023-04-06T05:05:24;6.83;;;6.13;;
28547;SDS011;68292;49.600;8.746;2023-04-06T05:07:53;6.43;;;5.83;;
28547;SDS011;68292;49.600;8.746;2023-04-06T05:10:34;7.33;;;6.10;;
28547;SDS011;68292;49.600;8.746;2023-04-06T05:13:03;6.13;;;5.53;;
28547;SDS011;68292;49.600;8.746;2023-04-06T05:15:34;6.40;;;5.20;;
28547;SDS011;68292;49.600;8.746;2023-04-06T05:18:13;5.73;;;4.87;;
28547;SDS011;68292;49.600;8.746;2023-04-06T05:20:42;6.20;;;5.60;;
28547;SDS011;68292;49.600;8.746;2023-04-06T05:23:11;6.37;;;5.77;;
28547;SDS011;68292;49.600;8.746;2023-04-06T05:25:40;5.83;;;5.27;;
28547;SDS011;68292;49.600;8.746;2023-04-06T05:28:15;6.33;;;5.73;;
28547;SDS011;68292;49.600;8.746;2023-04-06T05:30:46;6.80;;;5.23;;
28547;SDS011;68292;49.600;8.746;2023-04-06T05:33:15;6.33;;;5.20;;
28547;SDS011;68292;49.600;8.746;2023-04-06T05:35:58;6.07;;;5.47;;
28547;SDS011;68292;49.600;8.746;2023-04-06T05:38:28;7.90;;;6.23;;
28547;SDS011;68292;49.600;8.746;2023-04-06T05:41:03;6.33;;;5.33;;
28547;SDS011;68292;49.600;8.746;2023-04-06T05:43:33;7.17;;;6.47;;
28547;SDS011;68292;49.600;8.746;2023-04-06T05:46:03;8.50;;;6.53;;
28547;SDS011;68292;49.600;8.746;2023-04-06T05:48:33;8.67;;;6.93;;
28547;SDS011;68292;49.600;8.746;2023-04-06T05:51:03;7.20;;;6.40;;
28547;SDS011;68292;49.600;8.746;2023-04-06T05:53:42;7.60;;;6.67;;
28547;SDS011;68292;49.600;8.746;2023-04-06T05:56:11;10.60;;;6.20;;
28547;SDS011;68292;49.600;8.746;2023-04-06T05:58:40;7.30;;;5.83;;
28547;SDS011;68292;49.600;8.746;2023-04-06T06:01:14;6.33;;;5.73;;
28547;SDS011;68292;49.600;8.746;2023-04-06T06:03:45;6.30;;;5.70;;
28547;SDS011;68292;49.600;8.746;2023-04-06T06:06:15;7.60;;;6.27;;
28547;SDS011;68292;49.600;8.746;2023-04-06T06:09:04;6.57;;;5.50;;
28547;SDS011;68292;49.600;8.746;2023-04-06T06:11:39;8.23;;;7.37;;
28547;SDS011;68292;49.600;8.746;2023-04-06T06:14:11;5.97;;;5.37;;
28547;SDS011;68292;49.600;8.746;2023-04-06T06:16:42;6.00;;;5.40;;
28547;SDS011;68292;49.600;8.746;2023-04-06T06:19:13;6.20;;;5.10;;
28547;SDS011;68292;49.600;8.746;2023-04-06T06:21:43;8.90;;;6.60;;
28547;SDS011;68292;49.600;8.746;2023-04-06T06:24:13;6.53;;;5.60;;
28547;SDS011;68292;49.600;8.746;2023-04-06T06:26:42;6.63;;;5.93;;
28547;SDS011;68292;49.600;8.746;2023-04-06T06:29:13;6.90;;;6.20;;
28547;SDS011;68292;49.600;8.746;2023-04-06T06:31:44;6.23;;;5.63;;
28547;SDS011;68292;49.600;8.746;2023-04-06T06:34:13;6.63;;;5.77;;
28547;SDS011;68292;49.600;8.746;2023-04-06T06:36:42;6.40;;;5.70;;
28547;SDS011;68292;49.600;8.746;2023-04-06T06:39:15;7.73;;;6.17;;
28547;SDS011;68292;49.600;8.746;2023-04-06T06:41:44;6.90;;;6.23;;
28547;SDS011;68292;49.600;8.746;2023-04-06T06:44:13;6.40;;;5.80;;
28547;SDS011;68292;49.600;8.746;2023-04-06T06:46:44;8.17;;;6.63;;
28547;SDS011;68292;49.600;8.746;2023-04-06T06:49:13;7.10;;;6.40;;
28547;SDS011;68292;49.600;8.746;2023-04-06T06:51:42;7.80;;;6.60;;
28547;SDS011;68292;49.600;8.746;2023-04-06T06:54:11;7.37;;;6.67;;
28547;SDS011;68292;49.600;8.746;2023-04-06T06:56:40;6.80;;;6.07;;
28547;SDS011;68292;49.600;8.746;2023-04-06T06:59:10;7.00;;;5.93;;
28547;SDS011;68292;49.600;8.746;2023-04-06T07:01:39;6.80;;;6.07;;
28547;SDS011;68292;49.600;8.746;2023-04-06T07:04:10;6.73;;;5.40;;
28547;SDS011;68292;49.600;8.746;2023-04-06T07:06:39;5.30;;;4.80;;
28547;SDS011;68292;49.600;8.746;2023-04-06T07:09:08;6.97;;;6.00;;
28547;SDS011;68292;49.600;8.746;2023-04-06T07:11:36;7.17;;;5.40;;
28547;SDS011;68292;49.600;8.746;2023-04-06T07:14:05;6.07;;;5.47;;
28547;SDS011;68292;49.600;8.746;2023-04-06T07:16:35;6.30;;;5.70;;
28547;SDS011;68292;49.600;8.746;2023-04-06T07:19:03;6.30;;;5.70;;
28547;SDS011;68292;49.600;8.746;2023-04-06T07:21:34;7.47;;;5.20;;
28547;SDS011;68292;49.600;8.746;2023-04-06T07:24:03;6.23;;;5.63;;
28547;SDS011;68292;49.600;8.746;2023-04-06T07:26:33;7.93;;;5.33;;
28547;SDS011;68292;49.600;8.746;2023-04-06T07:29:03;7.30;;;5.60;;
28547;SDS011;68292;49.600;8.746;2023-04-06T07:31:32;5.90;;;5.40;;
28547;SDS011;68292;49.600;8.746;2023-04-06T07:34:03;6.63;;;6.00;;
28547;SDS011;68292;49.600;8.746;2023-04-06T07:36:34;5.90;;;5.30;;
28547;SDS011;68292;49.600;8.746;2023-04-06T07:39:03;6.37;;;5.77;;
28547;SDS011;68292;49.600;8.746;2023-04-06T07:41:34;6.23;;;5.63;;
28547;SDS011;68292;49.600;8.746;2023-04-06T07:44:03;6.50;;;5.83;;
28547;SDS011;68292;49.600;8.746;2023-04-06T07:46:36;7.57;;;5.83;;
28547;SDS011;68292;49.600;8.746;2023-04-06T07:49:05;6.53;;;5.93;;
28547;SDS011;68292;49.600;8.746;2023-04-06T07:51:36;7.10;;;6.40;;
28547;SDS011;68292;49.600;8.746;2023-04-06T07:54:06;6.30;;;5.67;;
28547;SDS011;68292;49.600;8.746;2023-04-06T07:56:35;7.60;;;6.50;;
28547;SDS011;68292;49.600;8.746;2023-04-06T07:59:04;7.70;;;6.47;;
28547;SDS011;68292;49.600;8.746;2023-04-06T08:01:33;6.63;;;5.90;;
28547;SDS011;68292;49.600;8.746;2023-04-06T08:04:02;7.97;;;7.17;;
28547;SDS011;68292;49.600;8.746;2023-04-06T08:06:31;7.13;;;6.50;;
28547;SDS011;68292;49.600;8.746;2023-04-06T08:09:02;7.67;;;6.10;;
28547;SDS011;68292;49.600;8.746;2023-04-06T08:11:31;7.60;;;6.83;;
28547;SDS011;68292;49.600;8.746;2023-04-06T08:14:00;8.10;;;6.77;;
28547;SDS011;68292;49.600;8.746;2023-04-06T08:16:29;9.07;;;6.50;;
28547;SDS011;68292;49.600;8.746;2023-04-06T08:18:57;7.50;;;6.80;;
28547;SDS011;68292;49.600;8.746;2023-04-06T08:21:26;8.70;;;7.43;;
28547;SDS011;68292;49.600;8.746;2023-04-06T08:23:55;8.93;;;8.00;;
28547;SDS011;68292;49.600;8.746;2023-04-06T08:26:25;8.63;;;7.57;;
28547;SDS011;68292;49.600;8.746;2023-04-06T08:28:54;7.47;;;6.67;;
28547;SDS011;68292;49.600;8.746;2023-04-06T08:31:23;7.30;;;6.23;;
28547;SDS011;68292;49.600;8.746;2023-04-06T08:33:52;8.07;;;7.27;;
28547;SDS011;68292;49.600;8.746;2023-04-06T08:36:21;7.47;;;6.60;;
28547;SDS011;68292;49.600;8.746;2023-04-06T08:38:51;7.57;;;6.80;;
28547;SDS011;68292;49.600;8.746;2023-04-06T08:41:20;7.40;;;6.70;;
28547;SDS011;68292;49.600;8.746;2023-04-06T08:43:53;7.50;;;6.73;;
28547;SDS011;68292;49.600;8.746;2023-04-06T08:46:26;8.27;;;7.03;;
28547;SDS011;68292;49.600;8.746;2023-04-06T08:49:01;8.40;;;6.87;;
28547;SDS011;68292;49.600;8.746;2023-04-06T08:51:34;7.57;;;6.80;;
28547;SDS011;68292;49.600;8.746;2023-04-06T08:54:05;6.23;;;5.40;;
28547;SDS011;68292;49.600;8.746;2023-04-06T08:56:36;7.57;;;6.17;;
28547;SDS011;68292;49.600;8.746;2023-04-06T08:59:09;8.07;;;6.80;;
28547;SDS011;68292;49.600;8.746;2023-04-06T09:01:39;6.87;;;6.17;;
28547;SDS011;68292;49.600;8.746;2023-04-06T09:04:09;6.57;;;5.90;;
28547;SDS011;68292;49.600;8.746;2023-04-06T09:06:40;6.83;;;5.90;;
28547;SDS011;68292;49.600;8.746;2023-04-06T09:09:08;7.43;;;6.27;;
28547;SDS011;68292;49.600;8.746;2023-04-06T09:11:42;8.50;;;7.03;;
28547;SDS011;68292;49.600;8.746;2023-04-06T09:14:14;7.83;;;6.77;;
28547;SDS011;68292;49.600;8.746;2023-04-06T09:16:44;12.63;;;8.27;;
28547;SDS011;68292;49.600;8.746;2023-04-06T09:19:14;10.33;;;8.50;;
28547;SDS011;68292;49.600;8.746;2023-04-06T09:21:43;14.57;;;9.27;;
28547;SDS011;68292;49.600;8.746;2023-04-06T09:24:12;14.57;;;8.73;;
28547;SDS011;68292;49.600;8.746;2023-04-06T09:26:44;12.37;;;9.20;;
28547;SDS011;68292;49.600;8.746;2023-04-06T09:29:24;13.48;;;8.02;;
28547;SDS011;68292;49.600;8.746;2023-04-06T09:32:01;9.63;;;7.20;;
28547;SDS011;68292;49.600;8.746;2023-04-06T09:34:32;9.02;;;7.07;;
28547;SDS011;68292;49.600;8.746;2023-04-06T09:37:11;7.80;;;7.10;;
28547;SDS011;68292;49.600;8.746;2023-04-06T09:39:41;6.80;;;6.20;;
28547;SDS011;68292;49.600;8.746;2023-04-06T09:42:11;7.80;;;5.95;;
28547;SDS011;68292;49.600;8.746;2023-04-06T09:44:52;7.35;;;6.63;;
28547;SDS011;68292;49.600;8.746;2023-04-06T09:47:22;6.85;;;6.25;;
28547;SDS011;68292;49.600;8.746;2023-04-06T09:49:56;7.50;;;6.80;;
28547;SDS011;68292;49.600;8.746;2023-04-06T09:52:27;7.30;;;6.40;;
28547;SDS011;68292;49.600;8.746;2023-04-06T09:55:02;7.80;;;6.50;;
28547;SDS011;68292;49.600;8.746;2023-04-06T09:57:37;9.82;;;6.03;;
28547;SDS011;68292;49.600;8.746;2023-04-06T10:00:15;6.82;;;5.70;;
28547;SDS011;68292;49.600;8.746;2023-04-06T10:02:50;6.25;;;5.55;;
28547;SDS011;68292;49.600;8.746;2023-04-06T10:05:32;6.80;;;6.20;;
28547;SDS011;68292;49.600;8.746;2023-04-06T10:08:06;6.03;;;5.47;;
28547;SDS011;68292;49.600;8.746;2023-04-06T10:10:38;6.85;;;5.25;;
28547;SDS011;68292;49.600;8.746;2023-04-06T10:13:07;6.90;;;5.53;;
28547;SDS011;68292;49.600;8.746;2023-04-06T10:15:39;5.75;;;4.85;;
28547;SDS011;68292;49.600;8.746;2023-04-06T10:18:09;7.13;;;5.65;;
28547;SDS011;68292;49.600;8.746;2023-04-06T10:20:40;5.55;;;4.90;;
28547;SDS011;68292;49.600;8.746;2023-04-06T10:23:19;4.90;;;4.35;;
28547;SDS011;68292;49.600;8.746;2023-04-06T10:25:52;6.00;;;5.28;;
28547;SDS011;68292;49.600;8.746;2023-04-06T10:28:22;5.38;;;4.88;;
28547;SDS011;68292;49.600;8.746;2023-04-06T10:30:57;6.18;;;5.57;;
28547;SDS011;68292;49.600;8.746;2023-04-06T10:33:28;7.30;;;6.22;;
28547;SDS011;68292;49.600;8.746;2023-04-06T10:35:57;6.68;;;6.00;;
28547;SDS011;68292;49.600;8.746;2023-04-06T10:38:33;9.20;;;5.80;;
28547;SDS011;68292;49.600;8.746;2023-04-06T10:41:06;6.28;;;5.68;;
28547;SDS011;68292;49.600;8.746;2023-04-06T10:43:37;6.00;;;5.40;;
28547;SDS011;68292;49.600;8.746;2023-04-06T10:46:09;6.97;;;6.03;;
28547;SDS011;68292;49.600;8.746;2023-04-06T10:48:39;6.57;;;5.68;;
28547;SDS011;68292;49.600;8.746;2023-04-06T10:51:10;7.03;;;6.03;;
28547;SDS011;68292;49.600;8.746;2023-04-06T10:53:41;6.95;;;5.93;;
28547;SDS011;68292;49.600;8.746;2023-04-06T10:56:13;6.50;;;5.85;;
28547;SDS011;68292;49.600;8.746;2023-04-06T10:58:45;5.93;;;5.35;;
28547;SDS011;68292;49.600;8.746;2023-04-06T11:01:17;7.43;;;6.63;;
28547;SDS011;68292;49.600;8.746;2023-04-06T11:03:49;6.68;;;6.07;;
28547;SDS011;68292;49.600;8.746;2023-04-06T11:06:20;7.47;;;6.25;;
28547;SDS011;68292;49.600;8.746;2023-04-06T11:08:51;7.65;;;5.95;;
28547;SDS011;68292;49.600;8.746;2023-04-06T11:11:21;6.97;;;6.28;;
28547;SDS011;68292;49.600;8.746;2023-04-06T11:13:53;8.02;;;6.45;;
28547;SDS011;68292;49.600;8.746;2023-04-06T11:16:26;7.05;;;6.30;;
28547;SDS011;68292;49.600;8.746;2023-04-06T11:18:57;8.88;;;7.15;;
28547;SDS011;68292;49.600;8.746;2023-04-06T11:21:32;8.05;;;7.25;;
28547;SDS011;68292;49.600;8.746;2023-04-06T11:24:03;7.55;;;6.60;;
28547;SDS011;68292;49.600;8.746;2023-04-06T11:26:38;7.10;;;6.28;;
28547;SDS011;68292;49.600;8.746;2023-04-06T11:29:08;6.95;;;5.95;;
28547;SDS011;68292;49.600;8.746;2023-04-06T11:31:40;6.75;;;6.03;;
28547;SDS011;68292;49.600;8.746;2023-04-06T11:34:11;7.45;;;6.25;;
28547;SDS011;68292;49.600;8.746;2023-04-06T11:36:41;6.07;;;5.43;;
28547;SDS011;68292;49.600;8.746;2023-04-06T11:39:11;6.30;;;5.70;;
28547;SDS011;68292;49.600;8.746;2023-04-06T11:41:40;6.57;;;5.97;;
28547;SDS011;68292;49.600;8.746;2023-04-06T11:44:09;6.00;;;5.40;;
28547;SDS011;68292;49.600;8.746;2023-04-06T11:46:39;6.78;;;6.03;;
28547;SDS011;68292;49.600;8.746;2023-04-06T11:49:08;6.30;;;5.50;;
28547;SDS011;68292;49.600;8.746;2023-04-06T11:51:37;6.38;;;5.78;;
28547;SDS011;68292;49.600;8.746;2023-04-06T11:54:06;6.80;;;6.10;;
28547;SDS011;68292;49.600;8.746;2023-04-06T11:56:35;6.70;;;6.07;;
28547;SDS011;68292;49.600;8.746;2023-04-06T11:59:03;6.05;;;5.45;;
28547;SDS011;68292;49.600;8.746;2023-04-06T12:01:32;6.35;;;5.78;;
28547;SDS011;68292;49.600;8.746;2023-04-06T12:04:06;9.20;;;6.83;;
28547;SDS011;68292;49.600;8.746;2023-04-06T12:06:35;7.53;;;6.75;;
28547;SDS011;68292;49.600;8.746;2023-04-06T12:09:04;7.27;;;6.40;;
28547;SDS011;68292;49.600;8.746;2023-04-06T12:11:33;6.93;;;6.00;;
28547;SDS011;68292;49.600;8.746;2023-04-06T12:14:02;7.65;;;6.20;;
28547;SDS011;68292;49.600;8.746;2023-04-06T12:16:31;6.23;;;5.60;;
28547;SDS011;68292;49.600;8.746;2023-04-06T12:19:00;5.57;;;5.00;;
28547;SDS011;68292;49.600;8.746;2023-04-06T12:21:31;8.07;;;5.90;;
28547;SDS011;68292;49.600;8.746;2023-04-06T12:24:01;5.80;;;5.20;;
28547;SDS011;68292;49.600;8.746;2023-04-06T12:26:31;8.23;;;5.73;;
28547;SDS011;68292;49.600;8.746;2023-04-06T12:29:00;6.07;;;5.47;;
28547;SDS011;68292;49.600;8.746;2023-04-06T12:31:34;6.47;;;5.53;;
28547;SDS011;68292;49.600;8.746;2023-04-06T12:34:05;7.97;;;5.80;;
28547;SDS011;68292;49.600;8.746;2023-04-06T12:36:36;6.23;;;5.63;;
28547;SDS011;68292;49.600;8.746;2023-04-06T12:39:06;8.47;;;5.87;;
28547;SDS011;68292;49.600;8.746;2023-04-06T12:41:35;7.82;;;5.57;;
28547;SDS011;68292;49.600;8.746;2023-04-06T12:44:07;6.70;;;6.10;;
28547;SDS011;68292;49.600;8.746;2023-04-06T12:46:35;6.30;;;5.70;;
28547;SDS011;68292;49.600;8.746;2023-04-06T12:49:04;6.10;;;5.50;;
28547;SDS011;68292;49.600;8.746;2023-04-06T12:51:33;6.57;;;5.87;;
28547;SDS011;68292;49.600;8.746;2023-04-06T12:54:04;6.78;;;6.00;;
28547;SDS011;68292;49.600;8.746;2023-04-06T12:56:33;6.50;;;5.80;;
28547;SDS011;68292;49.600;8.746;2023-04-06T12:59:03;6.93;;;5.67;;
28547;SDS011;68292;49.600;8.746;2023-04-06T13:01:34;11.77;;;6.03;;
28547;SDS011;68292;49.600;8.746;2023-04-06T13:04:03;6.50;;;5.90;;
28547;SDS011;68292;49.600;8.746;2023-04-06T13:06:32;7.70;;;6.00;;
28547;SDS011;68292;49.600;8.746;2023-04-06T13:09:02;5.88;;;5.38;;
28547;SDS011;68292;49.600;8.746;2023-04-06T13:11:32;6.73;;;6.10;;
28547;SDS011;68292;49.600;8.746;2023-04-06T13:14:01;6.70;;;6.10;;
28547;SDS011;68292;49.600;8.746;2023-04-06T13:16:32;6.00;;;5.50;;
28547;SDS011;68292;49.600;8.746;2023-04-06T13:19:01;6.33;;;5.63;;
28547;SDS011;68292;49.600;8.746;2023-04-06T13:21:30;7.07;;;6.37;;
28547;SDS011;68292;49.600;8.746;2023-04-06T13:24:00;6.90;;;6.20;;
28547;SDS011;68292;49.600;8.746;2023-04-06T13:26:31;7.27;;;6.07;;
28547;SDS011;68292;49.600;8.746;2023-04-06T13:29:00;6.20;;;5.60;;
28547;SDS011;68292;49.600;8.746;2023-04-06T13:31:29;5.63;;;5.03;;
28547;SDS011;68292;49.600;8.746;2023-04-06T13:33:58;6.40;;;5.80;;
28547;SDS011;68292;49.600;8.746;2023-04-06T13:36:27;5.40;;;4.90;;
28547;SDS011;68292;49.600;8.746;2023-04-06T13:38:56;5.63;;;5.15;;
28547;SDS011;68292;49.600;8.746;2023-04-06T13:41:27;6.23;;;5.63;;
28547;SDS011;68292;49.600;8.746;2023-04-06T13:43:56;6.33;;;5.73;;
28547;SDS011;68292;49.600;8.746;2023-04-06T13:46:26;6.60;;;5.90;;
28547;SDS011;68292;49.600;8.746;2023-04-06T13:48:55;5.37;;;4.87;;
28547;SDS011;68292;49.600;8.746;2023-04-06T13:51:23;5.60;;;5.10;;
28547;SDS011;68292;49.600;8.746;2023-04-06T13:53:53;6.43;;;5.80;;
28547;SDS011;68292;49.600;8.746;2023-04-06T13:56:21;7.47;;;6.57;;
28547;SDS011;68292;49.600;8.746;2023-04-06T13:58:54;6.50;;;5.90;;
28547;SDS011;68292;49.600;8.746;2023-04-06T14:01:25;6.10;;;5.50;;
28547;SDS011;68292;49.600;8.746;2023-04-06T14:03:54;7.43;;;5.73;;
28547;SDS011;68292;49.600;8.746;2023-04-06T14:06:23;6.20;;;5.23;;
28547;SDS011;68292;49.600;8.746;2023-04-06T14:08:57;5.77;;;4.80;;
28547;SDS011;68292;49.600;8.746;2023-04-06T14:11:26;8.80;;;7.00;;
28547;SDS011;68292;49.600;8.746;2023-04-06T14:13:56;9.87;;;7.67;;
28547;SDS011;68292;49.600;8.746;2023-04-06T14:16:25;8.67;;;6.43;;
28547;SDS011;68292;49.600;8.746;2023-04-06T14:18:54;7.67;;;6.27;;
28547;SDS011;68292;49.600;8.746;2023-04-06T14:21:24;7.00;;;5.50;;
28547;SDS011;68292;49.600;8.746;2023-04-06T14:23:53;6.03;;;5.43;;
28547;SDS011;68292;49.600;8.746;2023-04-06T14:26:25;18.00;;;6.40;;
28547;SDS011;68292;49.600;8.746;2023-04-06T14:28:54;5.45;;;4.95;;
28547;SDS011;68292;49.600;8.746;2023-04-06T14:31:24;6.13;;;4.93;;
28547;SDS011;68292;49.600;8.746;2023-04-06T14:33:53;6.43;;;5.77;;
28547;SDS011;68292;49.600;8.746;2023-04-06T14:36:22;6.43;;;5.57;;
28547;SDS011;68292;49.600;8.746;2023-04-06T14:38:53;6.67;;;5.97;;
28547;SDS011;68292;49.600;8.746;2023-04-06T14:41:22;6.97;;;5.60;;
28547;SDS011;68292;49.600;8.746;2023-04-06T14:43:52;6.93;;;5.80;;
28547;SDS011;68292;49.600;8.746;2023-04-06T14:46:21;6.03;;;5.50;;
28547;SDS011;68292;49.600;8.746;2023-04-06T14:48:51;8.07;;;6.43;;
28547;SDS011;68292;49.600;8.746;2023-04-06T14:51:21;6.70;;;6.10;;
28547;SDS011;68292;49.600;8.746;2023-04-06T14:53:52;8.00;;;6.70;;
28547;SDS011;68292;49.600;8.746;2023-04-06T14:56:21;8.00;;;6.47;;
28547;SDS011;68292;49.600;8.746;2023-04-06T14:58:51;7.53;;;6.47;;
28547;SDS011;68292;49.600;8.746;2023-04-06T15:01:20;6.23;;;5.63;;
28547;SDS011;68292;49.600;8.746;2023-04-06T15:03:49;6.63;;;5.97;;
28547;SDS011;68292;49.600;8.746;2023-04-06T15:06:19;9.10;;;6.40;;
28547;SDS011;68292;49.600;8.746;2023-04-06T15:08:48;6.33;;;5.73;;
28547;SDS011;68292;49.600;8.746;2023-04-06T15:11:17;7.20;;;6.47;;